Time;durP1;ratioP1;P1;durP2;ratioP2;P2;SDS_P1;SDS_P2;PMS_P1;PMS_P2;Temp;Humidity;BMP_temperature;BMP_pressure;BME280_temperature;BME280_humidity;BME280_pressure;Samples;Min_cycle;Max_cycle;Signal;HPM_P1;HPM_P2
2022/09/17 00:01:30;;;;;;;2.70;1.70;;;;;;;9.53;83.90;99390.78;1751368;82;21189;-83
2022/09/17 00:04:03;;;;;;;;;;;;;;;9.56;83.93;99396.30;1753612;82;21064;-83
2022/09/17 00:06:33;;;;;;;3.63;1.40;;;;;;;9.57;83.61;99387.55;1751460;81;20178;-83
2022/09/17 00:09:00;;;;;;;3.83;1.72;;;;;;;9.55;83.91;99390.22;1751335;82;20990;-86
2022/09/17 00:11:32;;;;;;;2.67;1.30;;;;;;;9.56;83.73;99391.94;1733980;82;21032;-83
2022/09/17 00:14:02;;;;;;;3.73;1.53;;;;;;;9.56;83.56;99389.31;1726380;81;21066;-88
2022/09/17 00:16:37;;;;;;;3.30;1.70;;;;;;;9.52;83.46;99387.76;1730640;81;21061;-88
2022/09/17 00:19:07;;;;;;;2.60;1.40;;;;;;;9.50;83.57;99388.28;1741250;82;20993;-83
2022/09/17 00:21:34;;;;;;;2.05;1.47;;;;;;;9.47;83.51;99385.82;1746634;81;21001;-82
2022/09/17 00:24:05;;;;;;;3.60;1.90;;;;;;;9.45;83.43;99379.84;1756655;80;21012;-83
2022/09/17 00:26:33;;;;;;;4.47;1.63;;;;;;;9.40;83.37;99373.98;1756347;80;21443;-83
2022/09/17 00:29:01;;;;;;;4.17;1.40;;;;;;;9.38;83.39;99373.20;1735341;81;20932;-82
2022/09/17 00:31:30;;;;;;;4.83;1.67;;;;;;;9.36;83.52;99373.73;1756749;81;20973;-82
2022/09/17 00:34:02;;;;;;;1.43;1.17;;;;;;;9.33;83.52;99361.64;1760366;81;21055;-82
2022/09/17 00:36:30;;;;;;;2.53;1.43;;;;;;;9.33;83.67;99364.73;1762244;81;21063;-82
2022/09/17 00:38:59;;;;;;;5.80;1.90;;;;;;;9.36;83.86;99364.11;1762050;81;21254;-82
2022/09/17 00:41:30;;;;;;;2.70;1.10;;;;;;;9.41;83.95;99368.28;1761962;81;20905;-82
2022/09/17 00:44:22;;;;;;;2.53;1.07;;;;;;;9.44;83.93;99368.97;1760968;81;21000;-82
2022/09/17 00:46:50;;;;;;;4.30;1.40;;;;;;;9.45;83.86;99368.51;1740624;80;20988;-85
2022/09/17 00:49:22;;;;;;;4.57;1.30;;;;;;;9.47;84.05;99360.97;1761985;81;21008;-82
2022/09/17 00:52:01;;;;;;;2.90;1.40;;;;;;;9.52;83.92;99360.76;1761296;81;21123;-82
2022/09/17 00:54:29;;;;;;;3.20;1.27;;;;;;;9.53;83.84;99368.98;1761869;81;21000;-83
2022/09/17 00:56:57;;;;;;;2.13;0.97;;;;;;;9.53;83.72;99362.00;1762016;81;21474;-88
2022/09/17 00:59:25;;;;;;;1.30;1.00;;;;;;;9.57;83.78;99365.30;1762130;81;20985;-82
2022/09/17 01:01:52;;;;;;;2.43;1.27;;;;;;;9.60;83.80;99367.77;1762028;81;21000;-83
2022/09/17 01:04:24;;;;;;;5.77;1.40;;;;;;;9.63;83.83;99357.61;1762063;81;21888;-82
2022/09/17 01:07:11;;;;;;;5.60;1.20;;;;;;;9.67;83.84;99361.75;1762009;81;21044;-85
2022/09/17 01:10:13;;;;;;;4.20;1.37;;;;;;;9.73;83.86;99366.24;1762249;81;21239;-82
2022/09/17 01:13:02;;;;;;;2.83;1.07;;;;;;;9.79;83.81;99367.70;1761261;81;20969;-82
2022/09/17 01:15:38;;;;;;;2.67;0.85;;;;;;;9.83;83.78;99362.22;1762016;81;21032;-80
2022/09/17 01:18:26;;;;;;;2.07;1.20;;;;;;;9.89;83.76;99359.75;1760073;81;21170;-82
2022/09/17 01:21:33;;;;;;;2.07;1.00;;;;;;;9.96;83.75;99358.99;1703801;82;21044;-82
2022/09/17 01:24:51;;;;;;;2.83;1.30;;;;;;;10.03;83.66;99352.06;1684329;85;21569;-88
2022/09/17 01:28:06;;;;;;;4.80;1.13;;;;;;;10.14;83.64;99355.44;1684263;85;20928;-79
2022/09/17 01:31:03;;;;;;;3.07;1.00;;;;;;;10.25;83.61;99345.25;1661267;85;21360;-80
2022/09/17 01:34:13;;;;;;;1.50;0.57;;;;;;;10.31;83.36;99345.86;1681830;81;21318;-83
2022/09/17 01:36:53;;;;;;;2.40;0.70;;;;;;;10.34;83.18;99346.56;1678426;84;20997;-81
2022/09/17 01:39:44;;;;;;;2.90;0.73;;;;;;;10.38;83.05;99344.63;1679030;84;21788;-94
2022/09/17 01:42:40;;;;;;;3.10;0.90;;;;;;;10.43;82.93;99346.53;1691439;84;21017;-84
2022/09/17 01:45:27;;;;;;;4.37;0.80;;;;;;;10.47;82.90;99347.61;1691044;84;21010;-82
2022/09/17 01:48:20;;;;;;;3.90;0.90;;;;;;;10.53;82.76;99335.09;1690662;84;21271;-90
2022/09/17 01:50:59;;;;;;;4.47;0.80;;;;;;;10.56;82.60;99333.61;1691111;84;21017;-84
2022/09/17 01:53:47;;;;;;;1.32;0.60;;;;;;;10.57;82.51;99331.39;1690929;84;21622;-83
2022/09/17 01:56:18;;;;;;;3.00;1.00;;;;;;;10.53;82.42;99342.95;1696734;83;21006;-87
2022/09/17 01:58:56;;;;;;;4.23;0.83;;;;;;;10.47;82.40;99345.43;1736166;82;20997;-85
2022/09/17 02:01:27;;;;;;;2.25;0.80;;;;;;;10.43;82.55;99336.06;1744770;82;21720;-85
2022/09/17 02:04:05;;;;;;;4.05;0.72;;;;;;;10.38;82.62;99346.77;1745843;82;20997;-86
2022/09/17 02:06:39;;;;;;;2.00;0.70;;;;;;;10.34;82.67;99350.49;1745947;82;21499;-84
2022/09/17 02:09:17;;;;;;;3.25;0.60;;;;;;;10.32;82.68;99342.33;1744860;82;21018;-84
2022/09/17 02:11:50;;;;;;;2.63;0.70;;;;;;;10.27;82.84;99343.41;1728807;82;21350;-83
2022/09/17 02:14:35;;;;;;;4.53;0.90;;;;;;;10.27;82.89;99343.41;1745893;82;21130;-80
2022/09/17 02:17:13;;;;;;;3.40;1.25;;;;;;;10.29;82.97;99343.34;1745988;81;21002;-87
2022/09/17 02:19:40;;;;;;;3.27;0.73;;;;;;;10.31;82.97;99348.04;1725567;82;21507;-83
2022/09/17 02:22:22;;;;;;;4.72;0.90;;;;;;;10.35;83.05;99354.80;1725506;82;21017;-79
2022/09/17 02:25:19;;;;;;;5.97;0.80;;;;;;;10.38;83.05;99348.08;1746159;82;21024;-84
2022/09/17 02:27:54;;;;;;;3.57;0.90;;;;;;;10.39;82.97;99344.55;1746004;82;21119;-82
2022/09/17 02:30:21;;;;;;;1.60;0.70;;;;;;;10.38;82.94;99344.15;1746002;82;21014;-82
2022/09/17 02:32:48;;;;;;;5.00;0.90;;;;;;;10.38;82.92;99344.15;1746359;82;21546;-83
2022/09/17 02:35:16;;;;;;;3.27;0.87;;;;;;;10.39;82.91;99338.00;1761760;80;21548;-83
2022/09/17 02:37:44;;;;;;;3.67;1.30;;;;;;;10.41;82.91;99336.13;1762460;81;21020;-83
2022/09/17 02:40:15;;;;;;;2.98;0.70;;;;;;;10.42;82.81;99329.98;1762140;80;21111;-83
2022/09/17 02:42:59;;;;;;;2.08;0.80;;;;;;;10.45;82.84;99338.98;1762301;81;20977;-81
2022/09/17 02:45:53;;;;;;;2.90;0.70;;;;;;;10.47;82.76;99337.13;1731028;82;21460;-80
2022/09/17 02:48:55;;;;;;;3.43;0.80;;;;;;;10.51;82.70;99331.73;1681771;84;21048;-89
2022/09/17 02:52:06;;;;;;;2.65;0.90;;;;;;;10.54;82.64;99328.47;1693450;84;21062;-82
2022/09/17 02:54:48;;;;;;;3.57;0.80;;;;;;;10.56;82.60;99345.40;1692218;83;21862;-83
2022/09/17 02:57:23;;;;;;;3.53;0.80;;;;;;;10.59;82.53;99334.78;1692091;83;21512;-82
2022/09/17 02:59:55;;;;;;;2.57;0.83;;;;;;;10.59;82.52;99331.69;1693407;84;21041;-81
2022/09/17 03:02:33;;;;;;;1.87;0.80;;;;;;;10.59;82.50;99338.23;1692237;84;21097;-83
2022/09/17 03:05:03;;;;;;;3.67;1.00;;;;;;;10.54;82.55;99332.87;1693706;84;21037;-81
2022/09/17 03:07:31;;;;;;;2.55;0.70;;;;;;;10.51;82.56;99334.34;1693431;84;21128;-84
2022/09/17 03:09:59;;;;;;;3.93;1.00;;;;;;;10.47;82.57;99328.41;1693651;84;21017;-83
2022/09/17 03:12:26;;;;;;;2.07;0.97;;;;;;;10.44;82.63;99328.09;1693615;84;21088;-83
2022/09/17 03:14:53;;;;;;;1.77;0.70;;;;;;;10.43;82.65;99333.44;1693266;84;21044;-81
2022/09/17 03:17:20;;;;;;;4.10;1.07;;;;;;;10.42;82.69;99333.04;1693698;84;21103;-82
2022/09/17 03:19:50;;;;;;;3.20;1.00;;;;;;;10.41;82.83;99331.36;1693302;84;21892;-82
2022/09/17 03:22:17;;;;;;;2.50;1.07;;;;;;;10.42;82.85;99340.89;1693682;84;21052;-85
2022/09/17 03:24:44;;;;;;;5.97;1.42;;;;;;;10.39;82.89;99326.22;1704214;81;21029;-86
2022/09/17 03:27:11;;;;;;;6.00;1.02;;;;;;;10.40;83.00;99333.13;1762380;80;21052;-88
2022/09/17 03:29:38;;;;;;;9.43;1.35;;;;;;;10.41;82.93;99337.91;1762105;80;21024;-84
2022/09/17 03:32:07;;;;;;;6.08;1.20;;;;;;;10.40;83.07;99348.02;1762036;81;21137;-80
2022/09/17 03:34:34;;;;;;;7.57;1.20;;;;;;;10.37;83.11;99337.23;1752289;80;20974;-82
2022/09/17 03:37:01;;;;;;;4.97;1.10;;;;;;;10.33;83.17;99344.86;1745754;80;21069;-84
2022/09/17 03:39:29;;;;;;;3.00;1.10;;;;;;;10.32;83.27;99348.41;1745827;80;20986;-82
2022/09/17 03:41:56;;;;;;;4.20;1.00;;;;;;;10.32;83.47;99351.50;1745758;82;21507;-84
2022/09/17 03:44:23;;;;;;;3.73;1.03;;;;;;;10.30;83.48;99345.02;1745855;82;21122;-83
2022/09/17 03:46:50;;;;;;;2.30;1.10;;;;;;;10.30;83.56;99354.19;1745745;80;21021;-83
2022/09/17 03:49:17;;;;;;;2.58;1.07;;;;;;;10.28;83.73;99350.80;1741267;80;21045;-81
2022/09/17 03:51:44;;;;;;;2.57;1.33;;;;;;;10.24;84.01;99355.32;1730008;80;21128;-81
2022/09/17 03:54:11;;;;;;;3.47;1.50;;;;;;;10.19;84.00;99357.33;1745981;80;21515;-82
2022/09/17 03:56:38;;;;;;;5.43;1.30;;;;;;;10.15;84.43;99352.35;1745807;80;22020;-81
2022/09/17 03:59:06;;;;;;;4.57;1.17;;;;;;;10.10;84.50;99355.67;1745988;80;21048;-81
2022/09/17 04:01:33;;;;;;;3.77;1.20;;;;;;;10.02;84.55;99354.28;1745821;80;21001;-81
2022/09/17 04:04:01;;;;;;;6.70;1.50;;;;;;;9.96;85.03;99361.61;1746052;80;20974;-81
2022/09/17 04:06:28;;;;;;;3.53;1.70;;;;;;;9.91;85.18;99359.22;1745671;82;20986;-82
2022/09/17 04:08:55;;;;;;;6.17;1.90;;;;;;;9.85;85.57;99368.70;1745876;80;21114;-78
2022/09/17 04:11:22;;;;;;;6.53;1.73;;;;;;;9.80;85.85;99359.75;1745686;80;20976;-78
2022/09/17 04:13:50;;;;;;;3.10;1.60;;;;;;;9.75;86.18;99366.98;1746004;80;21077;-77
2022/09/17 04:16:17;;;;;;;5.17;1.90;;;;;;;9.67;86.42;99363.94;1745676;80;21013;-79
2022/09/17 04:18:44;;;;;;;3.90;1.80;;;;;;;9.55;86.58;99367.98;1736767;82;20997;-78
2022/09/17 04:21:11;;;;;;;6.37;1.97;;;;;;;9.49;86.78;99364.84;1744933;81;21068;-78
2022/09/17 04:23:38;;;;;;;4.63;1.97;;;;;;;9.44;87.26;99372.05;1756251;81;21019;-79
2022/09/17 04:26:06;;;;;;;5.37;1.87;;;;;;;9.40;87.39;99366.60;1756736;81;21035;-79
2022/09/17 04:28:32;;;;;;;4.40;2.37;;;;;;;9.38;87.85;99378.44;1756320;81;21008;-79
2022/09/17 04:31:00;;;;;;;4.23;2.23;;;;;;;9.34;87.85;99372.52;1756630;81;20993;-79
2022/09/17 04:33:27;;;;;;;2.90;2.23;;;;;;;9.32;88.27;99378.73;1756345;81;21134;-79
2022/09/17 04:35:54;;;;;;;5.27;2.63;;;;;;;9.30;88.66;99376.64;1761922;81;21237;-80
2022/09/17 04:38:21;;;;;;;4.90;2.57;;;;;;;9.26;88.53;99385.11;1762110;80;21060;-81
2022/09/17 04:40:50;;;;;;;5.10;2.50;;;;;;;9.23;89.03;99369.56;1762058;80;21453;-81
2022/09/17 04:43:17;;;;;;;3.53;2.30;;;;;;;9.22;89.39;99373.08;1762114;81;20993;-80
2022/09/17 04:45:49;;;;;;;5.80;2.67;;;;;;;9.23;90.01;99376.11;1762321;81;21081;-81
2022/09/17 04:48:16;;;;;;;5.40;2.80;;;;;;;9.24;89.99;99379.56;1761958;81;20941;-80
2022/09/17 04:50:43;;;;;;;5.90;2.77;;;;;;;9.22;90.29;99375.70;1762202;81;20992;-80
2022/09/17 04:53:11;;;;;;;4.00;2.77;;;;;;;9.22;90.61;99378.31;1762088;81;21000;-81
2022/09/17 04:55:38;;;;;;;6.43;2.90;;;;;;;9.21;90.57;99376.63;1753555;81;21497;-80
2022/09/17 04:58:06;;;;;;;6.83;2.83;;;;;;;9.21;91.04;99382.33;1737584;81;21115;-81
2022/09/17 05:00:34;;;;;;;11.67;3.33;;;;;;;9.21;91.19;99385.78;1762295;81;21023;-80
2022/09/17 05:03:01;;;;;;;7.03;3.17;;;;;;;9.22;91.51;99386.63;1762038;81;21020;-81
2022/09/17 05:05:28;;;;;;;5.27;3.10;;;;;;;9.23;91.61;99389.17;1762418;81;20984;-80
2022/09/17 05:07:55;;;;;;;6.53;3.67;;;;;;;9.25;92.16;99385.16;1762167;81;21000;-81
2022/09/17 05:10:23;;;;;;;8.10;3.60;;;;;;;9.27;92.03;99384.64;1762453;81;21096;-82
2022/09/17 05:12:53;;;;;;;7.00;3.43;;;;;;;9.27;92.00;99394.63;1761894;81;21531;-81
2022/09/17 05:15:20;;;;;;;6.83;3.35;;;;;;;9.27;92.36;99397.72;1762382;81;21039;-81
2022/09/17 05:17:47;;;;;;;5.07;3.13;;;;;;;9.30;92.78;99400.18;1762338;81;20924;-81
2022/09/17 05:20:16;;;;;;;6.90;3.47;;;;;;;9.33;93.00;99403.48;1740247;81;21355;-77
2022/09/17 05:22:46;;;;;;;7.27;3.17;;;;;;;9.35;93.08;99402.96;1751028;81;21201;-81
2022/09/17 05:25:16;;;;;;;8.73;3.67;;;;;;;9.37;93.20;99395.05;1752640;81;21103;-80
2022/09/17 05:27:45;;;;;;;8.47;4.07;;;;;;;9.36;93.25;99395.95;1755406;81;21024;-82
2022/09/17 05:30:12;;;;;;;8.97;4.10;;;;;;;9.38;93.38;99400.66;1759437;81;21059;-78
2022/09/17 05:32:39;;;;;;;6.90;3.97;;;;;;;9.38;93.52;99399.35;1747138;81;21035;-84
2022/09/17 05:35:08;;;;;;;7.37;3.87;;;;;;;9.39;93.80;99401.03;1733204;81;21181;-82
2022/09/17 05:37:35;;;;;;;10.17;3.63;;;;;;;9.41;94.18;99400.98;1759477;81;21407;-80
2022/09/17 05:40:05;;;;;;;9.47;3.73;;;;;;;9.47;94.15;99405.91;1759423;81;21374;-80
2022/09/17 05:42:33;;;;;;;7.57;3.90;;;;;;;9.47;94.22;99406.75;1759660;81;21066;-80
2022/09/17 05:45:00;;;;;;;8.73;3.50;;;;;;;9.49;94.25;99402.77;1759728;81;21068;-79
2022/09/17 05:47:27;;;;;;;12.93;4.90;;;;;;;9.50;94.21;99409.67;1755851;81;21121;-82
2022/09/17 05:49:54;;;;;;;5.80;3.70;;;;;;;9.50;94.48;99409.21;1759483;81;21009;-82
2022/09/17 05:52:21;;;;;;;7.73;3.90;;;;;;;9.53;94.74;99414.32;1757640;81;20924;-82
2022/09/17 05:54:48;;;;;;;10.97;4.10;;;;;;;9.55;94.78;99411.15;1747182;80;21410;-86
2022/09/17 05:57:15;;;;;;;4.83;3.77;;;;;;;9.59;94.98;99414.48;1730712;81;21435;-86
2022/09/17 05:59:42;;;;;;;8.03;3.77;;;;;;;9.60;95.07;99414.86;1738301;81;21108;-85
2022/09/17 06:02:13;;;;;;;7.47;3.50;;;;;;;9.63;94.99;99416.02;1737482;81;21051;-91
2022/09/17 06:04:41;;;;;;;6.47;3.20;;;;;;;9.64;94.73;99405.92;1735806;81;21028;-81
2022/09/17 06:07:08;;;;;;;10.80;3.33;;;;;;;9.68;94.99;99416.64;1747343;81;21082;-82
2022/09/17 06:09:36;;;;;;;6.67;3.20;;;;;;;9.70;95.05;99408.70;1738102;81;21039;-82
2022/09/17 06:12:07;;;;;;;7.33;2.83;;;;;;;9.71;94.96;99408.64;1750015;81;21136;-82
2022/09/17 06:14:34;;;;;;;4.80;3.20;;;;;;;9.74;95.30;99409.79;1739331;81;21020;-81
2022/09/17 06:17:01;;;;;;;7.10;3.30;;;;;;;9.78;95.30;99413.09;1743096;81;21018;-82
2022/09/17 06:19:28;;;;;;;6.93;2.97;;;;;;;9.81;95.70;99413.81;1732821;81;21047;-82
2022/09/17 06:21:55;;;;;;;6.70;3.50;;;;;;;9.86;95.49;99417.95;1757594;81;21449;-81
2022/09/17 06:24:23;;;;;;;5.47;3.17;;;;;;;9.87;95.46;99418.36;1759602;81;21114;-83
2022/09/17 06:26:51;;;;;;;5.83;2.50;;;;;;;9.88;95.49;99418.27;1759559;81;21447;-83
2022/09/17 06:29:19;;;;;;;7.13;3.60;;;;;;;9.88;95.22;99414.81;1755592;81;21031;-79
2022/09/17 06:31:50;;;;;;;7.00;3.40;;;;;;;9.90;95.41;99412.97;1745689;81;20988;-88
2022/09/17 06:34:18;;;;;;;4.93;2.70;;;;;;;9.90;95.40;99411.20;1738944;81;21028;-78
2022/09/17 06:36:47;;;;;;;8.20;2.80;;;;;;;9.93;95.62;99417.58;1738767;81;21120;-80
2022/09/17 06:39:14;;;;;;;6.80;2.93;;;;;;;9.95;95.50;99413.56;1731799;81;21039;-86
2022/09/17 06:41:42;;;;;;;5.87;2.70;;;;;;;9.99;95.66;99422.50;1731216;81;21031;-85
2022/09/17 06:44:09;;;;;;;5.90;2.77;;;;;;;10.03;95.77;99417.95;1732869;81;21024;-86
2022/09/17 06:46:36;;;;;;;4.63;2.90;;;;;;;10.08;95.95;99422.49;1737453;81;21059;-86
2022/09/17 06:49:03;;;;;;;6.77;2.77;;;;;;;10.12;95.86;99429.29;1744249;81;21368;-89
2022/09/17 06:51:30;;;;;;;6.97;2.83;;;;;;;10.16;96.02;99423.42;1749930;81;21024;-87
2022/09/17 06:53:57;;;;;;;7.17;3.27;;;;;;;10.21;96.02;99422.27;1729859;81;21016;-81
2022/09/17 06:56:24;;;;;;;8.48;2.72;;;;;;;10.19;95.53;99428.50;1743406;81;21061;-78
2022/09/17 06:58:52;;;;;;;10.20;3.10;;;;;;;10.19;95.55;99421.48;1739428;81;21321;-84
2022/09/17 07:01:19;;;;;;;6.03;2.73;;;;;;;10.21;95.71;99429.28;1725193;81;21154;-77
2022/09/17 07:03:48;;;;;;;8.25;3.12;;;;;;;10.22;95.57;99421.33;1741834;81;21087;-84
2022/09/17 07:06:15;;;;;;;5.75;2.55;;;;;;;10.26;95.71;99427.28;1735884;81;21019;-84
2022/09/17 07:08:43;;;;;;;6.50;3.30;;;;;;;10.30;96.03;99423.59;1732108;81;21058;-80
2022/09/17 07:11:10;;;;;;;10.03;4.30;;;;;;;10.31;95.57;99433.16;1744236;81;21091;-81
2022/09/17 07:13:37;;;;;;;8.23;5.05;;;;;;;10.35;95.99;99433.84;1734533;81;21186;-79
2022/09/17 07:16:06;;;;;;;10.13;4.12;;;;;;;10.41;96.16;99435.67;1725617;81;21033;-82
2022/09/17 07:18:34;;;;;;;4.37;3.10;;;;;;;10.42;95.91;99437.38;1737072;81;21071;-89
2022/09/17 07:21:04;;;;;;;5.75;3.62;;;;;;;10.43;95.65;99442.16;1727510;81;21574;-80
2022/09/17 07:23:34;;;;;;;6.22;3.10;;;;;;;10.44;95.70;99443.84;1753681;81;21458;-82
2022/09/17 07:26:03;;;;;;;;;;;;;;;10.46;95.78;99446.77;1756442;81;21149;-86
2022/09/17 07:28:30;;;;;;;7.00;3.17;;;;;;;10.48;96.01;99448.84;1751554;81;20867;-87
2022/09/17 07:30:57;;;;;;;7.50;3.00;;;;;;;10.52;96.08;99451.31;1749864;81;21032;-79
2022/09/17 07:33:27;;;;;;;7.40;3.20;;;;;;;10.54;96.21;99441.13;1748672;81;21020;-89
2022/09/17 07:36:01;;;;;;;6.80;3.12;;;;;;;10.55;95.69;99439.36;1714247;81;22061;-90
2022/09/17 07:38:30;;;;;;;6.80;3.33;;;;;;;10.57;95.96;99442.75;1746418;81;21175;-86
2022/09/17 07:41:04;;;;;;;6.62;3.50;;;;;;;10.60;96.00;99432.10;1738637;81;21023;-80
2022/09/17 07:43:34;;;;;;;8.40;4.05;;;;;;;10.70;96.42;99436.78;1741688;81;21024;-77
2022/09/17 07:46:04;;;;;;;6.20;3.60;;;;;;;10.82;96.67;99434.44;1731339;81;21031;-76
2022/09/17 07:48:32;;;;;;;6.10;3.52;;;;;;;10.89;96.27;99437.09;1742459;81;21070;-77
2022/09/17 07:50:59;;;;;;;7.58;3.70;;;;;;;10.96;96.31;99442.88;1733641;81;21083;-81
2022/09/17 07:53:27;;;;;;;6.53;3.50;;;;;;;11.09;96.67;99459.17;1744794;81;22262;-77
2022/09/17 07:55:59;;;;;;;6.58;3.52;;;;;;;11.14;96.21;99458.90;1729488;81;21307;-76
2022/09/17 07:58:32;;;;;;;6.12;3.08;;;;;;;11.23;96.19;99463.67;1746799;81;21004;-80
2022/09/17 08:01:10;;;;;;;5.65;3.58;;;;;;;11.32;96.47;99472.80;1735489;81;21083;-78
2022/09/17 08:03:39;;;;;;;5.90;2.83;;;;;;;11.35;95.97;99470.84;1752356;81;21839;-77
2022/09/17 08:06:13;;;;;;;5.78;2.95;;;;;;;11.44;95.98;99480.46;1737761;81;20959;-81
2022/09/17 08:08:41;;;;;;;5.80;3.50;;;;;;;11.53;96.21;99486.53;1743922;80;21096;-84
2022/09/17 08:11:13;;;;;;;5.40;2.98;;;;;;;11.58;95.74;99489.72;1748712;81;21067;-88
2022/09/17 08:13:40;;;;;;;3.95;2.80;;;;;;;11.67;96.10;99494.48;1747210;81;21044;-90
2022/09/17 08:16:14;;;;;;;7.80;2.92;;;;;;;11.76;95.83;99499.20;1743417;81;21154;-83
2022/09/17 08:18:43;;;;;;;6.95;3.02;;;;;;;11.76;95.45;99498.36;1742546;81;21028;-82
2022/09/17 08:21:14;;;;;;;5.55;3.17;;;;;;;11.72;95.01;99502.08;1748026;80;21439;-79
2022/09/17 08:23:44;;;;;;;7.42;3.22;;;;;;;11.69;94.96;99501.78;1742500;80;21028;-85
2022/09/17 08:26:19;;;;;;;4.22;2.75;;;;;;;11.67;94.83;99500.20;1738165;81;21110;-78
2022/09/17 08:28:51;;;;;;;3.92;2.60;;;;;;;11.62;94.64;99504.38;1740513;81;21943;-78
2022/09/17 08:31:19;;;;;;;3.30;2.50;;;;;;;11.61;94.85;99502.67;1739893;80;21000;-80
2022/09/17 08:33:47;;;;;;;6.33;2.65;;;;;;;11.61;95.06;99500.05;1731912;81;21048;-77
2022/09/17 08:36:17;;;;;;;6.62;2.60;;;;;;;11.60;95.10;99497.89;1737172;80;21005;-78
2022/09/17 08:38:44;;;;;;;;;;;;;;;11.61;94.74;99498.73;1729270;81;21071;-80
2022/09/17 08:41:36;;;;;;;4.60;2.55;;;;;;;11.56;94.81;99500.80;1727925;81;21117;-83
2022/09/17 08:44:32;;;;;;;4.60;2.67;;;;;;;11.53;94.83;99505.74;1729652;80;21024;-78
2022/09/17 08:47:32;;;;;;;5.58;2.80;;;;;;;11.57;95.21;99513.81;1729705;80;21478;-85
2022/09/17 08:50:06;;;;;;;3.67;2.60;;;;;;;11.51;94.76;99508.06;1741079;81;21031;-90
2022/09/17 08:53:28;;;;;;;5.20;2.72;;;;;;;11.49;94.87;99515.17;1730028;81;20993;-77
2022/09/17 08:56:14;;;;;;;4.35;2.65;;;;;;;11.47;94.60;99523.58;1727476;81;21332;-83
2022/09/17 08:59:09;;;;;;;5.40;2.83;;;;;;;11.43;94.80;99511.58;1727616;81;21064;-85
2022/09/17 09:01:57;;;;;;;5.28;2.67;;;;;;;11.40;94.72;99509.97;1726249;81;20973;-80
2022/09/17 09:05:01;;;;;;;6.22;2.77;;;;;;;11.38;94.79;99503.95;1726824;80;21068;-84
2022/09/17 09:07:37;;;;;;;5.78;2.90;;;;;;;11.39;95.04;99506.50;1739903;81;21336;-81
2022/09/17 09:10:24;;;;;;;4.97;2.62;;;;;;;11.43;95.26;99503.70;1729002;81;21142;-90
2022/09/17 09:12:53;;;;;;;7.50;2.70;;;;;;;11.44;95.23;99505.39;1733629;81;20997;-88
2022/09/17 09:15:41;;;;;;;4.90;2.83;;;;;;;11.46;95.26;99509.62;1730832;81;21534;-77
2022/09/17 09:18:25;;;;;;;4.53;2.72;;;;;;;11.52;95.61;99509.28;1730804;81;21434;-76
2022/09/17 09:20:58;;;;;;;5.95;2.90;;;;;;;11.50;95.04;99505.05;1739870;81;21516;-83
2022/09/17 09:23:57;;;;;;;6.05;3.05;;;;;;;11.47;95.09;99511.77;1750872;81;22454;-78
2022/09/17 09:26:46;;;;;;;5.40;3.10;;;;;;;11.49;95.18;99510.77;1747330;81;20993;-84
2022/09/17 09:29:44;;;;;;;5.40;3.20;;;;;;;11.57;95.57;99519.53;1756791;81;21029;-76
2022/09/17 09:32:28;;;;;;;8.83;3.08;;;;;;;11.59;95.29;99515.05;1756345;81;20893;-80
2022/09/17 09:34:58;;;;;;;7.58;3.20;;;;;;;11.64;95.36;99500.34;1729615;81;21564;-79
2022/09/17 09:37:30;;;;;;;5.85;3.35;;;;;;;11.79;95.97;99512.16;1726463;81;21130;-76
2022/09/17 09:40:26;;;;;;;6.03;3.10;;;;;;;11.84;95.42;99511.43;1742115;81;21012;-78
2022/09/17 09:42:56;;;;;;;5.75;3.12;;;;;;;11.93;95.98;99504.84;1751174;81;21265;-77
2022/09/17 09:45:38;;;;;;;;;;;;;;;12.04;95.94;99509.02;1758873;81;21016;-82
2022/09/17 09:48:46;;;;;;;9.73;2.95;;;;;;;12.12;95.78;99518.25;1755488;81;20529;-77
2022/09/17 09:51:24;;;;;;;5.65;3.02;;;;;;;12.07;95.13;99517.66;1743627;81;21536;-80
2022/09/17 09:54:13;;;;;;;5.20;2.58;;;;;;;12.04;94.99;99507.70;1726596;81;21492;-79
2022/09/17 09:57:04;;;;;;;7.70;2.75;;;;;;;12.15;95.19;99514.13;1726388;81;21029;-80
2022/09/17 09:59:32;;;;;;;5.55;2.27;;;;;;;12.22;95.13;99504.94;1726140;81;21028;-79
2022/09/17 10:01:59;;;;;;;7.20;3.00;;;;;;;12.31;95.14;99508.84;1729799;81;21012;-80
2022/09/17 10:04:28;;;;;;;5.47;3.12;;;;;;;12.35;94.83;99511.65;1756653;81;21851;-80
2022/09/17 10:07:06;;;;;;;8.20;3.60;;;;;;;12.43;94.94;99510.27;1756427;81;21024;-80
2022/09/17 10:09:37;;;;;;;6.45;2.37;;;;;;;12.48;94.59;99516.09;1756306;81;21426;-79
2022/09/17 10:12:13;;;;;;;5.10;2.47;;;;;;;12.57;94.73;99516.48;1756371;81;21403;-80
2022/09/17 10:14:44;;;;;;;6.40;2.52;;;;;;;12.56;93.95;99510.39;1755591;81;21001;-80
2022/09/17 10:17:24;;;;;;;4.50;2.20;;;;;;;12.51;93.73;99513.76;1756211;81;21196;-79
2022/09/17 10:20:10;;;;;;;6.92;2.98;;;;;;;12.32;93.15;99506.58;1735151;81;21008;-84
2022/09/17 10:22:45;;;;;;;5.20;1.85;;;;;;;12.26;93.81;99520.45;1748691;81;21032;-83
2022/09/17 10:25:31;;;;;;;3.98;2.12;;;;;;;12.24;94.11;99529.34;1743907;81;20993;-82
2022/09/17 10:28:02;;;;;;;7.85;2.50;;;;;;;12.10;93.93;99526.67;1756335;81;21067;-83
2022/09/17 10:30:30;;;;;;;6.20;2.70;;;;;;;12.02;94.24;99529.26;1756635;81;21167;-83
2022/09/17 10:33:22;;;;;;;5.55;2.80;;;;;;;12.01;95.02;99532.83;1756364;81;21028;-84
2022/09/17 10:36:00;;;;;;;5.53;1.95;;;;;;;12.06;95.60;99531.27;1756581;81;21541;-81
2022/09/17 10:38:32;;;;;;;6.05;2.30;;;;;;;12.11;95.60;99537.11;1756394;81;21583;-81
2022/09/17 10:41:16;;;;;;;5.42;2.83;;;;;;;12.08;95.67;99536.41;1756333;81;21031;-77
2022/09/17 10:43:45;;;;;;;4.35;2.45;;;;;;;12.12;96.07;99532.22;1755908;81;21024;-81
2022/09/17 10:46:20;;;;;;;4.28;2.45;;;;;;;12.22;96.42;99539.97;1756503;81;21507;-90
2022/09/17 10:49:11;;;;;;;3.10;2.05;;;;;;;12.24;96.15;99538.07;1755421;81;21005;-79
2022/09/17 10:51:39;;;;;;;4.80;2.27;;;;;;;12.28;96.31;99538.29;1756938;81;21497;-79
2022/09/17 10:54:29;;;;;;;5.28;2.37;;;;;;;12.34;96.00;99539.72;1756565;81;21408;-81
2022/09/17 10:56:59;;;;;;;4.85;2.20;;;;;;;12.44;96.33;99540.02;1748765;80;21044;-80
2022/09/17 10:59:56;;;;;;;3.37;2.20;;;;;;;12.52;96.21;99546.14;1756563;81;21517;-80
2022/09/17 11:02:59;;;;;;;6.45;2.02;;;;;;;12.60;96.05;99548.69;1743068;81;21445;-80
2022/09/17 11:05:34;;;;;;;6.45;2.17;;;;;;;12.68;95.66;99538.56;1695967;83;21003;-92
2022/09/17 11:08:40;;;;;;;6.08;1.50;;;;;;;12.85;95.63;99539.34;1717759;83;21049;-78
2022/09/17 11:11:12;;;;;;;4.60;1.72;;;;;;;12.95;95.40;99541.33;1695300;84;21098;-78
2022/09/17 11:13:48;;;;;;;3.65;1.35;;;;;;;13.15;95.43;99540.11;1692369;83;21105;-78
2022/09/17 11:16:52;;;;;;;3.87;1.90;;;;;;;13.43;94.99;99541.55;1717386;83;21538;-78
2022/09/17 11:19:44;;;;;;;4.67;1.60;;;;;;;13.51;94.32;99532.70;1680901;83;21058;-86
2022/09/17 11:22:52;;;;;;;2.47;1.20;;;;;;;13.62;93.75;99527.59;1677026;84;21030;-80
2022/09/17 11:25:45;;;;;;;5.30;1.87;;;;;;;13.72;93.14;99521.29;1695687;83;21532;-77
2022/09/17 11:28:41;;;;;;;4.60;1.72;;;;;;;13.72;92.67;99510.75;1694550;83;21085;-80
2022/09/17 11:31:55;;;;;;;3.87;1.12;;;;;;;13.70;92.37;99510.84;1696519;83;21084;-85
2022/09/17 11:34:43;;;;;;;2.40;1.10;;;;;;;13.71;92.52;99516.47;1715153;82;21459;-77
2022/09/17 11:37:42;;;;;;;3.12;1.20;;;;;;;13.74;92.63;99509.69;1776027;80;20992;-78
2022/09/17 11:40:20;;;;;;;3.22;0.98;;;;;;;13.86;92.95;99509.87;1794523;80;21108;-80
2022/09/17 11:42:53;;;;;;;0.85;0.70;;;;;;;14.05;93.68;99503.77;1759663;81;20976;-76
2022/09/17 11:45:34;;;;;;;2.33;1.00;;;;;;;14.17;93.23;99489.77;1731325;80;21430;-76
2022/09/17 11:48:16;;;;;;;1.72;1.02;;;;;;;14.30;93.38;99488.49;1667084;85;21022;-90
2022/09/17 11:51:00;;;;;;;3.15;1.35;;;;;;;14.37;92.83;99484.95;1675090;84;21554;-76
2022/09/17 11:53:48;;;;;;;2.65;1.17;;;;;;;14.39;92.48;99478.64;1696957;84;21064;-79
2022/09/17 11:56:26;;;;;;;2.40;1.10;;;;;;;14.70;92.79;99475.26;1696924;84;21487;-76
2022/09/17 11:59:18;;;;;;;2.75;0.80;;;;;;;15.31;91.90;99476.72;1695170;84;21093;-78
2022/09/17 12:02:04;;;;;;;1.72;0.82;;;;;;;15.31;91.90;99476.72;1696796;84;21040;-77
2022/09/17 12:04:59;;;;;;;1.80;0.78;;;;;;;15.29;90.98;99474.17;1694908;84;21041;-76
2022/09/17 12:08:00;;;;;;;2.50;0.62;;;;;;;14.86;89.27;99471.93;1695713;84;21083;-78
2022/09/17 12:10:50;;;;;;;2.15;1.30;;;;;;;14.86;89.27;99471.93;1696683;84;21684;-80
2022/09/17 12:13:32;;;;;;;2.25;0.98;;;;;;;14.75;89.40;99469.20;1696903;84;21387;-79
2022/09/17 12:16:07;;;;;;;4.35;1.10;;;;;;;14.85;89.91;99473.34;1693667;84;21068;-76